Time;durP1;ratioP1;P1;durP2;ratioP2;P2;SDS_P1;SDS_P2;PMS_P1;PMS_P2;Temp;Humidity;BMP_temperature;BMP_pressure;BME280_temperature;BME280_humidity;BME280_pressure;Samples;Min_cycle;Max_cycle;Signal;HPM_P1;HPM_P2
2022/08/12 00:44:09;;;;;;;5.28;4.88;;;;;;;19.79;86.27;101765.72;5190331;28;20041;-63
2022/08/12 00:46:48;;;;;;;5.88;4.80;;;;;;;19.86;86.53;101781.81;5205745;28;20400;-63
2022/08/12 00:49:20;;;;;;;;;;;;;;;19.88;86.88;101774.09;5206178;28;20096;-62
2022/08/12 00:52:06;;;;;;;4.97;4.55;;;;;;;19.85;87.23;101774.69;5204526;28;19988;-63
2022/08/12 00:54:48;;;;;;;5.82;5.32;;;;;;;19.80;87.56;101777.50;5204382;28;20060;-62
2022/08/12 00:57:28;;;;;;;4.30;4.05;;;;;;;19.71;88.31;101769.13;5205570;28;20022;-63
2022/08/12 01:00:03;;;;;;;;;;;;;;;19.69;88.75;101784.22;5205938;28;20640;-62
2022/08/12 01:02:38;;;;;;;4.72;4.53;;;;;;;19.65;89.33;101777.69;5187687;28;19912;-64
2022/08/12 01:13:45;;;;;;;5.15;4.75;;;;;;;19.37;91.84;101774.72;5204410;28;20033;-63
2022/08/12 01:16:21;;;;;;;5.32;4.82;;;;;;;19.25;92.77;101777.09;5205278;28;20013;-62
2022/08/12 01:18:54;;;;;;;5.55;5.10;;;;;;;19.17;93.77;101780.47;5204987;28;20116;-63
2022/08/12 01:22:08;;;;;;;5.22;4.82;;;;;;;19.06;94.89;101782.47;5205001;28;20135;-63
2022/08/12 01:25:01;;;;;;;5.57;5.28;;;;;;;18.93;96.21;101764.03;5203185;28;20026;-63
2022/08/12 01:27:36;;;;;;;5.35;5.05;;;;;;;19.12;96.29;101792.28;5186760;28;20028;-63
2022/08/12 01:30:10;;;;;;;5.45;5.07;;;;;;;19.10;96.13;101780.81;5204915;28;20543;-63
2022/08/12 01:32:44;;;;;;;7.60;5.07;;;;;;;19.09;96.67;101789.31;5204778;28;20045;-62
2022/08/12 01:35:16;;;;;;;9.40;5.47;;;;;;;19.06;97.26;101781.66;5203828;28;20037;-62
2022/08/12 01:37:55;;;;;;;4.75;4.55;;;;;;;18.99;97.76;101783.97;5204787;28;20112;-62
2022/08/12 01:40:29;;;;;;;5.90;5.50;;;;;;;18.97;98.96;101794.38;5187733;28;20025;-63
2022/08/12 01:43:06;;;;;;;5.72;5.20;;;;;;;18.92;100.00;101788.94;5204473;28;20022;-63
2022/08/12 01:45:59;;;;;;;6.85;4.75;;;;;;;18.93;100.00;101787.84;5202723;28;20033;-63
2022/08/12 01:48:38;;;;;;;5.03;4.63;;;;;;;18.89;100.00;101785.69;5186579;28;20017;-62
2022/08/12 01:51:25;;;;;;;5.47;5.18;;;;;;;18.83;100.00;101789.56;5204554;28;20033;-62
2022/08/12 01:54:11;;;;;;;5.07;4.70;;;;;;;18.76;100.00;101775.44;5203736;28;20030;-63
2022/08/12 01:57:11;;;;;;;5.25;4.82;;;;;;;18.75;100.00;101782.00;5204074;28;20492;-63
2022/08/12 02:00:06;;;;;;;4.93;4.63;;;;;;;18.67;100.00;101777.16;5195088;28;20037;-62
2022/08/12 02:02:56;;;;;;;4.15;3.95;;;;;;;18.52;100.00;101766.31;5204295;28;20029;-64
2022/08/12 02:12:00;;;;;;;5.30;4.85;;;;;;;18.37;100.00;101760.97;5203983;28;20501;-62
2022/08/12 02:15:14;;;;;;;5.75;5.45;;;;;;;18.40;100.00;101772.16;5202095;28;20030;-62
2022/08/12 02:17:51;;;;;;;7.45;5.70;;;;;;;18.28;100.00;101757.22;5181545;28;20040;-62
2022/08/12 02:20:22;;;;;;;5.57;4.68;;;;;;;18.34;100.00;101770.56;5204079;28;20048;-61
2022/08/12 02:22:54;;;;;;;7.72;4.05;;;;;;;18.33;100.00;101766.19;5204331;28;20017;-62
2022/08/12 02:25:32;;;;;;;4.47;4.18;;;;;;;18.32;100.00;101771.97;5202831;28;20489;-62
2022/08/12 02:28:03;;;;;;;6.05;5.40;;;;;;;18.30;100.00;101758.56;5203730;28;20035;-62
2022/08/12 02:30:36;;;;;;;5.70;5.40;;;;;;;18.31;100.00;101762.94;5203851;28;20029;-63
2022/08/12 02:33:09;;;;;;;5.13;4.82;;;;;;;18.33;100.00;101765.38;5203904;28;20049;-63
2022/08/12 02:35:39;;;;;;;5.55;5.07;;;;;;;18.29;100.00;101764.31;5203083;28;20025;-63
2022/08/12 02:38:11;;;;;;;6.20;5.63;;;;;;;18.27;100.00;101761.06;5203809;28;20465;-62
2022/08/12 02:40:46;;;;;;;5.60;5.30;;;;;;;18.26;100.00;101756.69;5185885;28;20029;-63
2022/08/12 02:43:43;;;;;;;6.93;6.53;;;;;;;18.23;100.00;101755.34;5203512;28;20057;-63
2022/08/12 02:46:19;;;;;;;7.63;7.03;;;;;;;18.21;100.00;101752.06;5202170;28;20483;-63
2022/08/12 02:48:51;;;;;;;6.13;5.60;;;;;;;18.21;100.00;101755.63;5203590;28;20079;-62
2022/08/12 02:51:28;;;;;;;7.93;6.22;;;;;;;18.17;100.00;101749.13;5203496;28;20027;-63
2022/08/12 02:54:04;;;;;;;6.88;6.30;;;;;;;18.17;100.00;101746.38;5202641;28;20045;-63
2022/08/12 02:56:36;;;;;;;5.30;4.88;;;;;;;18.16;100.00;101761.16;5203126;28;20057;-63
2022/08/12 02:59:10;;;;;;;6.10;5.70;;;;;;;18.12;100.00;101749.16;5203471;28;20053;-63
2022/08/12 03:02:03;;;;;;;10.82;6.68;;;;;;;18.12;100.00;101748.34;5238438;22;20037;-66
2022/08/12 03:04:40;;;;;;;4.82;4.53;;;;;;;18.11;100.00;101746.69;5243736;28;20024;-66
2022/08/12 03:07:18;;;;;;;5.22;4.80;;;;;;;18.06;100.00;101747.53;5244585;28;20031;-66
2022/08/12 03:09:58;;;;;;;7.05;6.53;;;;;;;18.02;100.00;101743.75;5244368;28;20040;-66
2022/08/12 03:12:33;;;;;;;7.35;6.85;;;;;;;18.02;100.00;101751.13;5244620;28;20053;-66
2022/08/12 03:15:08;;;;;;;6.43;5.82;;;;;;;17.97;100.00;101748.44;5225569;28;20119;-67
2022/08/12 03:17:47;;;;;;;6.68;6.20;;;;;;;17.97;100.00;101746.50;5244346;28;20025;-66
2022/08/12 03:20:20;;;;;;;8.60;7.53;;;;;;;17.90;100.00;101729.63;5230955;28;20032;-67
2022/08/12 03:22:51;;;;;;;6.60;6.20;;;;;;;17.93;100.00;101745.44;5248788;28;20361;-66
2022/08/12 03:25:26;;;;;;;6.75;6.25;;;;;;;17.91;100.00;101744.91;5229622;28;20027;-66
2022/08/12 03:27:57;;;;;;;6.18;5.65;;;;;;;17.84;100.00;101741.69;5248524;28;20024;-67
2022/08/12 03:30:31;;;;;;;6.10;5.60;;;;;;;17.73;100.00;101740.13;5248636;28;20067;-66
2022/08/12 03:33:03;;;;;;;7.82;5.88;;;;;;;17.57;100.00;101730.34;5248645;28;20016;-66
2022/08/12 03:35:34;;;;;;;9.00;6.25;;;;;;;17.70;100.00;101762.53;5247977;28;20025;-66
2022/08/12 03:38:07;;;;;;;7.10;6.43;;;;;;;17.63;100.00;101757.34;5248554;28;20021;-66
2022/08/12 04:01:21;;;;;;;8.43;7.82;;;;;;;17.16;100.00;101755.09;5248129;28;20031;-66
2022/08/12 04:03:52;;;;;;;7.50;6.28;;;;;;;17.17;100.00;101752.09;5247289;28;20055;-67
2022/08/12 04:06:25;;;;;;;6.85;6.45;;;;;;;17.14;100.00;101749.91;5248025;28;20633;-64
2022/08/12 04:08:58;;;;;;;8.23;6.95;;;;;;;17.17;100.00;101745.81;5247609;28;20039;-65
2022/08/12 04:14:19;;;;;;;8.00;7.30;;;;;;;17.14;100.00;101749.91;5215698;28;20040;-65
2022/08/12 04:16:50;;;;;;;5.28;4.97;;;;;;;17.03;100.00;101737.41;5247503;28;20465;-65
2022/08/12 04:19:22;;;;;;;7.45;6.82;;;;;;;17.13;100.00;101753.75;5247414;28;20050;-65
2022/08/12 04:21:57;;;;;;;6.22;5.82;;;;;;;16.98;100.00;101728.41;5247727;28;20078;-65
2022/08/12 04:24:28;;;;;;;10.13;5.90;;;;;;;17.10;100.00;101758.94;5228786;28;20025;-65
2022/08/12 04:26:59;;;;;;;5.65;5.25;;;;;;;17.08;100.00;101755.66;5229233;28;20017;-64
2022/08/12 04:29:29;;;;;;;6.53;6.03;;;;;;;17.07;100.00;101756.75;5247172;28;20097;-67
2022/08/12 04:32:00;;;;;;;6.38;5.78;;;;;;;17.05;100.00;101750.75;5246835;28;20016;-65
2022/08/12 04:34:30;;;;;;;6.82;6.40;;;;;;;17.05;100.00;101762.50;5246247;28;20039;-65
2022/08/12 04:37:01;;;;;;;7.88;7.28;;;;;;;16.78;100.00;101718.34;5228793;28;20020;-65
2022/08/12 04:39:32;;;;;;;6.53;5.95;;;;;;;17.07;100.00;101756.75;5246970;28;20025;-64
2022/08/12 04:42:02;;;;;;;6.18;5.60;;;;;;;17.11;100.00;101757.84;5247373;28;20028;-65
2022/08/12 04:44:33;;;;;;;6.28;5.78;;;;;;;17.11;100.00;101761.38;5246342;28;20021;-66
2022/08/12 04:47:04;;;;;;;5.47;5.13;;;;;;;17.12;100.00;101756.75;5246686;28;20032;-65
2022/08/12 04:49:35;;;;;;;8.55;6.80;;;;;;;17.12;100.00;101757.56;5228920;28;20669;-65
2022/08/12 04:52:06;;;;;;;6.30;5.80;;;;;;;17.16;100.00;101760.56;5246812;28;20028;-65
2022/08/12 04:54:37;;;;;;;7.40;5.45;;;;;;;17.14;100.00;101757.28;5245931;28;20033;-65
2022/08/12 04:57:08;;;;;;;6.60;6.20;;;;;;;17.17;100.00;101764.91;5246481;28;20025;-66
2022/08/12 04:59:38;;;;;;;6.07;5.68;;;;;;;17.14;100.00;101755.38;5246477;28;20052;-65
2022/08/12 05:02:09;;;;;;;6.32;5.78;;;;;;;17.18;100.00;101761.09;5228331;28;20071;-64
2022/08/12 05:04:40;;;;;;;6.13;5.63;;;;;;;17.18;100.00;101753.72;5245813;28;20400;-66
2022/08/12 05:07:11;;;;;;;7.32;6.85;;;;;;;17.12;100.00;101751.28;5246099;28;20028;-66
2022/08/12 05:09:42;;;;;;;6.22;5.85;;;;;;;17.19;100.00;101763.56;5246365;28;20031;-66
2022/08/12 05:12:12;;;;;;;20.48;7.57;;;;;;;17.24;100.00;101770.09;5228469;28;20052;-70
2022/08/12 05:14:42;;;;;;;5.57;5.20;;;;;;;17.24;100.00;101767.38;5245538;28;20032;-66
2022/08/12 05:17:13;;;;;;;8.52;7.85;;;;;;;17.27;100.00;101770.34;5246410;28;20035;-65
2022/08/12 05:19:43;;;;;;;7.57;6.80;;;;;;;17.29;100.00;101765.44;5245736;28;20460;-65
2022/08/12 05:22:14;;;;;;;8.15;7.43;;;;;;;17.33;100.00;101769.22;5245759;28;20052;-65
2022/08/12 05:24:45;;;;;;;6.85;6.35;;;;;;;17.36;100.00;101768.66;5245465;28;20016;-67
2022/08/12 05:27:16;;;;;;;7.25;6.75;;;;;;;17.41;100.00;101776.84;5247523;28;20078;-68
2022/08/12 05:29:48;;;;;;;8.77;6.88;;;;;;;17.45;100.00;101775.19;5247270;28;20029;-66
2022/08/12 05:32:24;;;;;;;7.38;6.47;;;;;;;17.40;100.00;101767.00;5246642;28;20059;-66
2022/08/12 05:34:54;;;;;;;7.60;7.05;;;;;;;17.54;100.00;101776.25;5246192;28;20488;-70
2022/08/12 05:37:25;;;;;;;12.93;7.15;;;;;;;17.59;100.00;101780.88;5246213;28;20024;-66
2022/08/12 05:39:56;;;;;;;13.77;7.53;;;;;;;17.64;100.00;101785.47;5228011;28;20388;-65
2022/08/12 05:42:26;;;;;;;8.38;7.65;;;;;;;17.63;100.00;101779.19;5245428;28;20058;-66
2022/08/12 05:44:56;;;;;;;7.57;7.18;;;;;;;17.72;100.00;101784.91;5227202;28;20024;-66
2022/08/12 05:47:27;;;;;;;8.15;7.65;;;;;;;17.77;100.00;101779.44;5245383;28;20025;-66
2022/08/12 05:49:58;;;;;;;12.57;8.95;;;;;;;17.78;100.00;101770.97;5245516;28;20025;-66
2022/08/12 05:52:29;;;;;;;7.65;7.15;;;;;;;17.86;100.00;101777.75;5245814;28;20496;-66
2022/08/12 05:55:01;;;;;;;7.95;7.40;;;;;;;17.90;100.00;101784.28;5244666;28;20024;-66
2022/08/12 05:57:32;;;;;;;8.57;7.88;;;;;;;17.92;100.00;101779.34;5245099;28;20024;-66
2022/08/12 06:00:04;;;;;;;7.07;6.57;;;;;;;18.01;100.00;101791.31;5245149;28;20031;-66
2022/08/12 06:02:34;;;;;;;9.23;8.38;;;;;;;18.01;100.00;101774.09;5245140;28;20036;-66
2022/08/12 06:05:09;;;;;;;9.60;7.47;;;;;;;18.11;100.00;101784.97;5239797;28;20035;-66
2022/08/12 06:07:44;;;;;;;7.72;7.22;;;;;;;18.21;100.00;101784.88;5226479;28;20112;-66
2022/08/12 06:10:18;;;;;;;8.73;8.07;;;;;;;18.30;100.00;101793.28;5227109;28;20032;-66
2022/08/12 06:12:49;;;;;;;11.63;8.73;;;;;;;18.37;100.00;101788.31;5245454;28;20434;-66
2022/08/12 06:15:19;;;;;;;9.60;9.00;;;;;;;18.47;100.00;101783.59;5243931;28;20025;-66
2022/08/12 06:17:50;;;;;;;8.98;8.23;;;;;;;18.58;100.00;101783.50;5227113;28;20028;-67
2022/08/12 06:20:20;;;;;;;8.57;7.97;;;;;;;18.70;100.00;101787.53;5226752;28;20392;-66
2022/08/12 06:22:51;;;;;;;8.38;7.70;;;;;;;18.80;100.00;101790.16;5245275;28;20463;-66
2022/08/12 06:25:21;;;;;;;12.05;11.15;;;;;;;18.92;100.00;101791.69;5244244;28;20057;-66
2022/08/12 06:27:52;;;;;;;8.93;8.10;;;;;;;18.96;100.00;101790.81;5227100;28;20020;-66
2022/08/12 06:30:22;;;;;;;10.38;7.50;;;;;;;19.12;100.00;101792.28;5227104;28;20027;-66
2022/08/12 06:32:53;;;;;;;8.73;8.13;;;;;;;19.20;100.00;101788.91;5245129;28;20376;-66
2022/08/12 06:35:25;;;;;;;7.85;7.10;;;;;;;19.23;100.00;101771.09;5244277;28;20551;-66
2022/08/12 06:37:55;;;;;;;10.93;9.15;;;;;;;19.35;100.00;101784.34;5245167;28;20034;-66
2022/08/12 06:43:14;;;;;;;10.82;9.88;;;;;;;19.57;100.00;101786.59;5245005;28;20039;-66
2022/08/12 06:45:46;;;;;;;12.00;10.75;;;;;;;19.67;100.00;101794.66;5244424;28;20464;-66
2022/08/12 06:48:16;;;;;;;9.00;8.40;;;;;;;19.76;100.00;101792.91;5226914;28;20024;-66
2022/08/12 06:50:48;;;;;;;9.15;8.05;;;;;;;19.80;100.00;101766.53;5244648;28;20383;-66
2022/08/12 06:53:18;;;;;;;8.13;7.43;;;;;;;20.11;100.00;101789.66;5243809;28;20021;-66
2022/08/12 06:55:51;;;;;;;9.55;8.77;;;;;;;20.24;100.00;101777.09;5244247;28;20028;-67
2022/08/12 06:58:23;;;;;;;8.45;7.60;;;;;;;20.38;100.00;101782.69;5244890;28;20027;-66
2022/08/12 07:00:56;;;;;;;9.68;8.85;;;;;;;20.52;100.00;101775.28;5244864;28;20036;-66
2022/08/12 07:03:27;;;;;;;8.32;7.82;;;;;;;20.62;100.00;101774.31;5227090;28;20699;-69
2022/08/12 07:06:04;;;;;;;10.45;9.60;;;;;;;20.76;100.00;101786.97;5244744;28;20029;-66
2022/08/12 07:08:34;;;;;;;8.88;8.07;;;;;;;20.95;100.00;101788.81;5227022;28;20029;-66
2022/08/12 07:11:08;;;;;;;7.90;7.38;;;;;;;21.08;100.00;101780.56;5244764;28;20025;-67
2022/08/12 07:13:42;;;;;;;8.32;7.72;;;;;;;21.28;100.00;101789.59;5244228;28;20384;-66
2022/08/12 07:16:14;;;;;;;9.63;8.23;;;;;;;21.45;100.00;101773.28;5244539;28;20020;-66
2022/08/12 07:18:49;;;;;;;10.25;9.07;;;;;;;21.87;100.00;101783.09;5244255;28;20032;-67
2022/08/12 07:21:19;;;;;;;8.27;7.53;;;;;;;22.16;100.00;101788.22;5242951;28;20027;-64
2022/08/12 07:23:50;;;;;;;10.80;7.72;;;;;;;22.45;100.00;101785.03;5241071;28;20024;-67
2022/08/12 07:26:20;;;;;;;9.27;6.95;;;;;;;22.79;100.00;101784.47;5244355;28;20024;-67
2022/08/12 07:28:51;;;;;;;8.40;7.57;;;;;;;23.04;98.96;101781.03;5244442;28;20452;-67
2022/08/12 07:31:21;;;;;;;7.63;7.03;;;;;;;23.30;97.90;101780.31;5245648;28;20047;-64
2022/08/12 07:33:52;;;;;;;7.82;7.20;;;;;;;23.44;95.99;101745.13;5244863;28;20104;-65
2022/08/12 07:36:24;;;;;;;10.70;7.28;;;;;;;23.76;95.21;101757.72;5245123;28;20016;-65
2022/08/12 07:38:54;;;;;;;10.27;8.00;;;;;;;24.15;93.47;101774.13;5226645;28;20038;-66
2022/08/12 07:41:30;;;;;;;6.63;6.07;;;;;;;24.48;93.08;101776.38;5244561;28;20020;-64
2022/08/12 07:44:04;;;;;;;6.82;6.05;;;;;;;24.83;92.78;101771.59;5244177;28;20442;-67
2022/08/12 07:46:40;;;;;;;21.23;8.82;;;;;;;25.20;91.34;101775.50;5244132;28;20021;-66
2022/08/12 07:49:13;;;;;;;6.47;6.07;;;;;;;25.32;88.54;101770.09;5244053;28;20497;-65
2022/08/12 07:51:44;;;;;;;7.43;6.82;;;;;;;25.52;88.21;101771.25;5225322;28;20024;-65
2022/08/12 07:54:15;;;;;;;6.80;6.32;;;;;;;25.73;88.80;101774.88;5228765;28;20025;-65
2022/08/12 07:56:46;;;;;;;10.07;8.65;;;;;;;25.84;87.06;101772.53;5228831;28;20021;-66
2022/08/12 07:59:16;;;;;;;12.88;9.15;;;;;;;25.92;85.77;101770.84;5228728;28;20032;-65
2022/08/12 08:01:48;;;;;;;9.65;8.30;;;;;;;25.95;84.86;101768.22;5227940;28;20043;-64
2022/08/12 08:07:08;;;;;;;6.32;5.82;;;;;;;26.40;84.42;101776.63;5247804;28;20507;-65
2022/08/12 08:09:38;;;;;;;5.80;5.35;;;;;;;26.61;84.16;101775.75;5247500;28;20103;-65
2022/08/12 08:14:58;;;;;;;5.85;5.45;;;;;;;26.85;83.12;101773.06;5247276;28;20055;-65
2022/08/12 08:17:28;;;;;;;6.82;6.22;;;;;;;27.11;81.80;101778.31;5229540;28;20016;-70
2022/08/12 08:19:58;;;;;;;6.18;5.38;;;;;;;27.15;79.70;101785.56;5230085;28;20029;-67
2022/08/12 08:22:29;;;;;;;6.82;6.28;;;;;;;27.08;78.50;101776.22;5248079;28;20097;-66
2022/08/12 08:24:59;;;;;;;5.22;4.90;;;;;;;27.11;78.08;101781.88;5229445;28;20035;-65
2022/08/12 08:27:44;;;;;;;7.63;4.70;;;;;;;27.15;75.94;101779.19;5247336;28;20020;-66
2022/08/12 08:30:15;;;;;;;5.35;4.85;;;;;;;27.19;76.45;101766.25;5229196;28;20154;-66
2022/08/12 08:32:45;;;;;;;5.90;5.40;;;;;;;27.38;75.64;101771.25;5247139;28;20159;-66
2022/08/12 08:35:16;;;;;;;6.28;5.75;;;;;;;27.50;75.96;101774.78;5246360;28;20474;-65
2022/08/12 08:37:46;;;;;;;5.80;5.45;;;;;;;27.36;76.69;101743.84;5246962;28;20035;-67
2022/08/12 08:43:07;;;;;;;5.20;4.85;;;;;;;27.85;75.69;101772.34;5247534;28;20048;-66
2022/08/12 08:45:38;;;;;;;6.00;5.47;;;;;;;27.86;71.12;101770.38;5227959;28;20475;-65
2022/08/12 08:48:09;;;;;;;7.22;5.20;;;;;;;28.00;70.40;101773.56;5228777;28;20029;-69
2022/08/12 08:50:39;;;;;;;10.02;5.03;;;;;;;28.11;69.64;101768.31;5228732;28;20032;-65
2022/08/12 08:53:11;;;;;;;11.75;5.40;;;;;;;28.29;71.13;101768.84;5246674;28;20103;-66
2022/08/12 08:55:42;;;;;;;6.88;6.47;;;;;;;28.23;70.92;101774.66;5245463;28;20036;-66
2022/08/12 08:58:12;;;;;;;4.95;4.65;;;;;;;28.38;70.36;101775.84;5227189;28;20039;-67
2022/08/12 09:03:18;;;;;;;12.38;4.60;;;;;;;28.58;69.04;101767.66;5250606;28;20427;-63
2022/08/12 09:05:49;;;;;;;5.10;4.80;;;;;;;28.70;67.57;101760.03;5226936;28;20025;-61
2022/08/12 09:08:21;;;;;;;5.43;5.07;;;;;;;29.12;67.62;101760.34;5245551;28;20028;-61
2022/08/12 09:13:26;;;;;;;5.25;4.95;;;;;;;29.45;66.20;101767.50;5227525;28;20021;-61
2022/08/12 09:13:42;;;;;;;8.63;4.60;;;;;;;29.52;65.08;101762.88;5244725;28;20033;-61
2022/08/12 09:16:12;;;;;;;4.50;4.28;;;;;;;29.71;64.14;101756.56;5226328;28;20548;-61
2022/08/12 09:18:43;;;;;;;5.97;5.03;;;;;;;29.78;62.77;101755.88;5245344;28;20142;-61
2022/08/12 09:21:14;;;;;;;4.88;4.60;;;;;;;29.87;63.99;101745.34;5245215;28;20024;-61
2022/08/12 09:23:44;;;;;;;5.07;4.72;;;;;;;30.05;63.05;101746.53;5243318;28;20028;-60
2022/08/12 09:26:17;;;;;;;4.07;3.78;;;;;;;30.09;58.78;101744.63;5244233;28;20024;-60
2022/08/12 09:28:49;;;;;;;7.90;5.00;;;;;;;30.12;59.85;101745.88;5244008;28;20032;-60
2022/08/12 09:31:21;;;;;;;6.28;5.07;;;;;;;30.24;60.05;101734.56;5244386;28;20430;-60
2022/08/12 09:33:52;;;;;;;5.38;4.20;;;;;;;30.36;56.06;101736.38;5243520;28;20058;-60
2022/08/12 09:36:22;;;;;;;13.48;5.70;;;;;;;30.38;57.37;101743.19;5243821;28;20081;-62
2022/08/12 09:38:53;;;;;;;3.40;3.20;;;;;;;30.25;57.80;101732.59;5225758;28;20019;-61
2022/08/12 09:41:24;;;;;;;5.78;3.97;;;;;;;30.21;57.70;101733.31;5243581;28;20456;-61
2022/08/12 09:46:44;;;;;;;;;;;;;;;30.87;55.39;101736.94;5243781;28;20039;-61
2022/08/12 09:49:14;;;;;;;4.57;4.28;;;;;;;30.58;55.41;101702.19;5243748;28;20012;-60
2022/08/12 09:51:46;;;;;;;9.18;3.83;;;;;;;30.63;55.71;101734.50;5243982;28;20474;-61
2022/08/12 09:54:16;;;;;;;11.43;4.13;;;;;;;30.57;55.12;101725.66;5243144;28;20119;-60
2022/08/12 09:56:47;;;;;;;4.72;4.32;;;;;;;30.59;53.03;101725.28;5243615;28;20119;-61
2022/08/12 09:59:17;;;;;;;3.20;3.00;;;;;;;30.66;52.48;101720.63;5243548;28;20453;-61
2022/08/12 10:01:48;;;;;;;3.88;3.67;;;;;;;30.63;52.41;101720.56;5225786;28;20121;-61
2022/08/12 10:04:18;;;;;;;4.20;3.90;;;;;;;30.57;52.73;101728.44;5242945;28;20123;-61
2022/08/12 10:06:48;;;;;;;5.55;5.20;;;;;;;30.55;51.57;101723.22;5243249;28;20025;-61
2022/08/12 10:09:19;;;;;;;3.10;2.90;;;;;;;30.80;51.24;101723.66;5243256;28;20118;-60
2022/08/12 10:14:38;;;;;;;;;;;;;;;31.12;49.15;101715.03;5243169;28;20044;-61
2022/08/12 10:17:09;;;;;;;4.13;3.85;;;;;;;31.01;49.91;101700.06;5225498;28;19908;-61
2022/08/12 10:19:39;;;;;;;5.88;3.90;;;;;;;31.00;50.17;101710.41;5243412;28;20016;-61
2022/08/12 10:22:10;;;;;;;4.10;3.90;;;;;;;30.88;49.17;101700.28;5243553;28;20029;-61
2022/08/12 10:24:41;;;;;;;6.22;4.10;;;;;;;30.74;48.69;101688.91;5243697;28;20171;-60
2022/08/12 10:30:01;;;;;;;3.17;3.03;;;;;;;30.86;48.37;101683.13;5243444;28;20098;-60
2022/08/12 10:32:31;;;;;;;3.47;3.28;;;;;;;31.01;48.58;101680.53;5243235;28;20028;-60
2022/08/12 10:35:02;;;;;;;7.38;3.67;;;;;;;31.09;47.03;101687.84;5242435;28;20062;-60
2022/08/12 10:37:33;;;;;;;4.18;3.53;;;;;;;31.19;47.15;101678.84;5243154;28;20465;-60
2022/08/12 10:40:04;;;;;;;3.55;3.22;;;;;;;31.29;46.75;101682.97;5243253;28;20028;-60
2022/08/12 10:45:30;;;;;;;4.47;4.15;;;;;;;31.33;46.06;101681.84;5242504;28;20400;-60
2022/08/12 10:48:01;;;;;;;3.83;3.40;;;;;;;31.45;45.94;101673.25;5242998;28;20344;-58
2022/08/12 10:50:32;;;;;;;34.47;4.47;;;;;;;31.62;46.14;101674.63;5243203;28;20095;-60
2022/08/12 10:53:06;;;;;;;4.30;3.92;;;;;;;31.43;45.54;101675.59;5243298;28;20119;-60
2022/08/12 10:55:36;;;;;;;22.42;4.88;;;;;;;31.11;45.67;101655.59;5242333;28;20033;-59
2022/08/12 10:58:07;;;;;;;6.75;2.85;;;;;;;31.23;45.92;101676.91;5243355;28;20020;-57
2022/08/12 11:00:37;;;;;;;3.53;3.28;;;;;;;30.96;45.74;101667.72;5225820;28;20017;-58
2022/08/12 11:03:08;;;;;;;3.03;2.83;;;;;;;30.89;46.69;101657.28;5244419;28;20039;-58
2022/08/12 11:05:39;;;;;;;6.38;4.70;;;;;;;31.18;46.41;101663.31;5224188;28;20028;-59
2022/08/12 11:08:11;;;;;;;4.10;3.78;;;;;;;31.38;46.42;101659.19;5243331;28;20119;-57
2022/08/12 11:10:41;;;;;;;3.58;3.38;;;;;;;31.36;46.06;101655.97;5243113;28;20016;-59
2022/08/12 11:13:12;;;;;;;3.67;3.40;;;;;;;31.51;45.85;101654.13;5243190;28;20029;-59
2022/08/12 11:15:42;;;;;;;3.78;3.53;;;;;;;31.64;44.74;101649.94;5224616;28;20024;-59
2022/08/12 11:18:13;;;;;;;3.25;3.05;;;;;;;31.62;44.75;101645.91;5243599;28;20028;-57
2022/08/12 11:20:43;;;;;;;4.40;3.70;;;;;;;31.74;45.24;101642.91;5243097;28;20032;-60
2022/08/12 11:23:15;;;;;;;5.55;5.10;;;;;;;31.64;45.39;101635.16;5209160;28;20461;-59
2022/08/12 11:25:46;;;;;;;3.97;3.67;;;;;;;31.68;45.21;101630.44;5242469;28;20189;-60
2022/08/12 11:28:17;;;;;;;5.93;4.40;;;;;;;31.58;44.95;101631.09;5224839;28;20028;-61
2022/08/12 11:30:48;;;;;;;4.13;3.50;;;;;;;31.50;44.61;101644.16;5242619;28;20036;-60
2022/08/12 11:33:18;;;;;;;4.13;3.92;;;;;;;31.32;44.86;101629.97;5242681;28;20048;-61
2022/08/12 11:35:49;;;;;;;4.40;4.03;;;;;;;31.63;45.52;101622.38;5242342;28;20046;-59
2022/08/12 11:38:19;;;;;;;5.60;4.18;;;;;;;31.95;44.97;101620.78;5224558;28;20067;-59
2022/08/12 11:40:50;;;;;;;3.22;3.03;;;;;;;31.90;43.50;101632.28;5246369;28;20502;-62
2022/08/12 11:43:20;;;;;;;5.97;3.55;;;;;;;31.62;43.48;101627.16;5245972;28;20064;-61
2022/08/12 11:45:50;;;;;;;4.00;3.75;;;;;;;31.41;43.89;101621.34;5245631;28;20028;-60
2022/08/12 11:48:21;;;;;;;3.92;3.58;;;;;;;31.62;43.92;101615.19;5246208;28;20040;-59
2022/08/12 11:50:51;;;;;;;2.53;2.42;;;;;;;31.88;44.65;101609.53;5245931;28;20043;-59
2022/08/12 11:53:22;;;;;;;2.95;2.75;;;;;;;32.13;43.36;101604.16;5227267;28;20674;-60
2022/08/12 11:55:53;;;;;;;6.72;3.17;;;;;;;32.32;42.68;101605.97;5228088;28;20036;-59
2022/08/12 11:58:23;;;;;;;4.13;2.80;;;;;;;32.63;42.59;101608.19;5194834;28;20032;-61
2022/08/12 12:00:54;;;;;;;7.15;3.70;;;;;;;32.63;41.37;101605.38;5194523;28;20055;-58
2022/08/12 12:03:25;;;;;;;3.28;3.05;;;;;;;32.52;42.05;101612.91;5245174;28;20021;-56
2022/08/12 12:05:55;;;;;;;3.95;2.65;;;;;;;32.53;41.41;101598.53;5227165;28;20020;-61
2022/08/12 12:08:26;;;;;;;3.70;3.50;;;;;;;32.29;40.77;101598.34;5245169;28;20132;-60
2022/08/12 12:10:56;;;;;;;2.70;2.50;;;;;;;32.20;40.49;101607.84;5227195;28;20338;-60
2022/08/12 12:13:27;;;;;;;8.65;4.40;;;;;;;32.28;40.63;101602.34;5244206;28;20029;-58
2022/08/12 12:15:58;;;;;;;3.30;3.10;;;;;;;32.49;41.15;101603.31;5245020;28;20023;-60
2022/08/12 12:18:30;;;;;;;4.25;3.78;;;;;;;32.74;40.53;101597.91;5245168;28;20111;-61
2022/08/12 12:21:03;;;;;;;3.00;2.80;;;;;;;32.75;40.47;101593.94;5245198;28;20104;-62
2022/08/12 12:23:34;;;;;;;2.55;2.40;;;;;;;32.61;39.69;101601.41;5244528;28;20445;-60
2022/08/12 12:26:05;;;;;;;2.72;2.50;;;;;;;32.46;39.34;101592.09;5245129;28;20028;-60
2022/08/12 12:28:37;;;;;;;4.47;3.20;;;;;;;32.53;40.34;101592.16;5226844;28;20365;-59
2022/08/12 12:31:08;;;;;;;24.77;3.58;;;;;;;32.63;40.50;101588.59;5226608;28;20036;-59
2022/08/12 12:33:39;;;;;;;4.32;3.38;;;;;;;32.67;39.68;101581.03;5244303;28;20403;-60
2022/08/12 12:36:09;;;;;;;3.40;2.63;;;;;;;32.63;40.36;101579.44;5226342;28;20099;-61
2022/08/12 12:38:40;;;;;;;3.30;3.03;;;;;;;32.67;40.17;101569.84;5244787;28;20036;-60
2022/08/12 12:41:10;;;;;;;3.17;2.97;;;;;;;32.74;40.55;101571.91;5244515;28;20111;-61
2022/08/12 12:43:41;;;;;;;3.40;3.13;;;;;;;32.94;39.80;101566.84;5243723;28;20012;-59
2022/08/12 12:46:11;;;;;;;4.13;2.95;;;;;;;32.94;39.33;101564.03;5244469;28;20032;-59
2022/08/12 12:48:42;;;;;;;2.58;2.38;;;;;;;32.75;39.66;101560.34;5244510;28;20105;-61
2022/08/12 12:51:15;;;;;;;2.88;2.67;;;;;;;32.66;39.67;101565.47;5243404;28;20084;-60
2022/08/12 12:53:48;;;;;;;3.08;2.83;;;;;;;32.80;39.92;101562.78;5243805;28;20383;-59
2022/08/12 12:56:21;;;;;;;4.45;4.13;;;;;;;32.69;39.74;101544.28;5244006;28;20024;-61
2022/08/12 12:58:53;;;;;;;3.03;2.90;;;;;;;32.75;38.83;101556.75;5244731;28;20077;-59
2022/08/12 13:01:26;;;;;;;2.65;2.45;;;;;;;32.71;39.36;101565.09;5244637;28;20036;-59
2022/08/12 13:03:56;;;;;;;10.27;4.40;;;;;;;32.75;39.61;101565.94;5243418;28;20028;-60
2022/08/12 13:06:30;;;;;;;5.55;3.10;;;;;;;32.67;39.43;101557.88;5243813;28;20066;-61
2022/08/12 13:09:01;;;;;;;3.22;2.95;;;;;;;32.48;39.49;101545.78;5244265;28;20468;-59
2022/08/12 13:11:32;;;;;;;3.45;3.15;;;;;;;32.35;39.99;101543.66;5243952;28;20032;-60
2022/08/12 13:14:04;;;;;;;3.13;2.92;;;;;;;32.72;40.42;101544.31;5243207;28;20036;-61
2022/08/12 13:16:34;;;;;;;2.63;2.50;;;;;;;32.93;39.06;101545.66;5244042;28;20365;-59
2022/08/12 13:19:04;;;;;;;2.63;2.47;;;;;;;33.23;39.25;101548.97;5243904;28;20032;-61
2022/08/12 13:22:14;;;;;;;9.10;2.92;;;;;;;33.64;38.44;101540.31;5244163;28;20094;-60
2022/08/12 13:24:25;;;;;;;2.75;2.63;;;;;;;33.70;37.88;101539.53;5243032;28;20032;-61
2022/08/12 13:26:56;;;;;;;4.22;3.88;;;;;;;34.04;38.18;101547.59;5225673;28;20443;-61
2022/08/12 13:29:32;;;;;;;2.88;2.67;;;;;;;34.04;38.26;101534.38;5243858;28;20056;-61
2022/08/12 13:32:04;;;;;;;2.72;2.63;;;;;;;34.58;38.44;101540.75;5244617;28;20131;-59
2022/08/12 13:34:35;;;;;;;2.47;2.35;;;;;;;34.25;36.84;101539.19;5243233;28;20017;-62